createdAt,value
2023-01-04T00:00:05.831Z,1.74
2023-01-04T00:02:32.250Z,1.71
2023-01-04T00:04:58.626Z,1.69
2023-01-04T00:07:24.938Z,1.68
2023-01-04T00:09:51.229Z,1.66
2023-01-04T00:12:17.553Z,1.69
2023-01-04T00:14:43.878Z,1.69
2023-01-04T00:17:10.169Z,1.69
2023-01-04T00:19:36.489Z,1.70
2023-01-04T00:22:02.848Z,1.71
2023-01-04T00:24:29.189Z,1.67
2023-01-04T00:26:55.487Z,1.64
2023-01-04T00:29:22.028Z,1.64
2023-01-04T00:31:48.497Z,1.60
2023-01-04T00:34:17.175Z,1.60
2023-01-04T00:36:44.151Z,1.57
2023-01-04T00:39:14.383Z,1.56
2023-01-04T00:42:03.146Z,1.52
2023-01-04T00:44:30.326Z,1.47
2023-01-04T00:46:57.699Z,1.44
2023-01-04T00:49:24.083Z,1.39
2023-01-04T00:51:50.762Z,1.33
2023-01-04T00:54:17.349Z,1.35
2023-01-04T00:56:44.378Z,1.41
2023-01-04T00:59:13.380Z,1.43
2023-01-04T01:01:41.024Z,1.46
2023-01-04T01:04:07.561Z,1.53
2023-01-04T01:06:34.526Z,1.58
2023-01-04T01:09:01.229Z,1.58
2023-01-04T01:11:28.699Z,1.63
2023-01-04T01:13:55.557Z,1.68
2023-01-04T01:16:51.794Z,1.70
2023-01-04T01:19:10.026Z,1.69
2023-01-04T01:21:36.536Z,1.70
2023-01-04T01:24:02.837Z,1.76
2023-01-04T01:26:29.522Z,1.81
2023-01-04T01:28:55.885Z,1.81
2023-01-04T01:31:24.940Z,1.78
2023-01-04T01:33:53.716Z,1.75
2023-01-04T01:36:23.173Z,1.80
2023-01-04T01:38:49.951Z,1.85
2023-01-04T01:41:22.818Z,1.90
2023-01-04T01:44:14.994Z,1.92
2023-01-04T01:46:48.934Z,2.00
2023-01-04T01:49:24.233Z,2.03
2023-01-04T01:51:51.774Z,2.07
2023-01-04T01:54:24.710Z,2.10
2023-01-04T01:56:51.547Z,2.15
2023-01-04T01:59:19.503Z,2.24
2023-01-04T02:01:46.216Z,2.29
2023-01-04T02:04:14.755Z,2.33
2023-01-04T02:06:49.303Z,2.38
2023-01-04T02:09:17.583Z,2.40
2023-01-04T02:11:43.979Z,2.49
2023-01-04T02:14:11.063Z,2.55
2023-01-04T02:17:00.539Z,2.64
2023-01-04T02:19:42.788Z,2.73
2023-01-04T02:22:21.240Z,2.74
2023-01-04T02:24:59.689Z,2.76
2023-01-04T02:27:50.415Z,2.70
2023-01-04T02:30:19.672Z,2.68
2023-01-04T02:33:10.238Z,2.69
2023-01-04T02:35:55.377Z,2.68
2023-01-04T02:38:28.480Z,2.70
2023-01-04T02:41:22.682Z,2.73
2023-01-04T02:43:51.621Z,2.75
2023-01-04T02:46:25.933Z,2.72
2023-01-04T02:48:52.273Z,2.72
2023-01-04T02:51:34.879Z,2.75
2023-01-04T02:54:10.114Z,2.79
2023-01-04T02:57:16.008Z,2.83
2023-01-04T03:00:01.098Z,2.85
2023-01-04T03:02:48.718Z,2.89
2023-01-04T03:05:22.520Z,2.97
2023-01-04T03:08:01.161Z,3.02
2023-01-04T03:10:49.266Z,3.07
2023-01-04T03:13:21.469Z,3.08
2023-01-04T03:15:54.723Z,3.14
2023-01-04T03:18:27.452Z,3.15
2023-01-04T03:20:57.469Z,3.16
2023-01-04T03:23:27.315Z,3.16
2023-01-04T03:26:15.897Z,3.14
2023-01-04T03:28:44.628Z,3.21
2023-01-04T03:31:24.716Z,3.22
2023-01-04T03:33:51.306Z,3.25
2023-01-04T03:36:21.960Z,3.27
2023-01-04T03:39:01.191Z,3.28
2023-01-04T03:41:38.745Z,3.33
2023-01-04T03:44:41.545Z,3.32
2023-01-04T03:47:14.984Z,3.41
2023-01-04T03:50:00.781Z,3.44
2023-01-04T03:52:30.821Z,3.49
2023-01-04T03:54:59.928Z,3.48
2023-01-04T03:57:26.746Z,3.49
2023-01-04T03:59:57.941Z,3.46
2023-01-04T04:02:30.574Z,3.45
2023-01-04T04:04:57.193Z,3.51
2023-01-04T04:07:23.488Z,3.54
2023-01-04T04:09:49.895Z,3.55
2023-01-04T04:12:16.272Z,3.53
2023-01-04T04:14:42.549Z,3.53
2023-01-04T04:17:08.868Z,3.51
2023-01-04T04:19:35.256Z,3.53
2023-01-04T04:22:01.569Z,3.57
2023-01-04T04:24:28.012Z,3.55
2023-01-04T04:26:55.559Z,3.56
2023-01-04T04:29:23.470Z,3.56
2023-01-04T04:31:50.603Z,3.61
2023-01-04T04:34:16.954Z,3.59
2023-01-04T04:36:43.305Z,3.61
2023-01-04T04:39:11.254Z,3.66
2023-01-04T04:41:38.677Z,3.73
2023-01-04T04:44:12.536Z,3.76
2023-01-04T04:46:39.224Z,3.76
2023-01-04T04:49:06.611Z,3.79
2023-01-04T04:51:33.163Z,3.84
2023-01-04T04:53:59.568Z,3.87
2023-01-04T04:56:26.095Z,3.91
2023-01-04T04:58:52.671Z,3.94
2023-01-04T05:01:19.668Z,3.96
2023-01-04T05:03:46.405Z,4.03
2023-01-04T05:06:13.174Z,4.06
2023-01-04T05:08:39.595Z,4.09
2023-01-04T05:11:10.118Z,4.14
2023-01-04T05:13:36.927Z,4.13
2023-01-04T05:16:05.255Z,4.14
2023-01-04T05:18:32.353Z,4.14
2023-01-04T05:20:58.819Z,4.14
2023-01-04T05:23:25.257Z,4.17
2023-01-04T05:25:54.841Z,4.18
2023-01-04T05:28:21.127Z,4.20
2023-01-04T05:30:50.306Z,4.17
2023-01-04T05:33:18.435Z,4.16
2023-01-04T05:35:45.039Z,4.18
2023-01-04T05:38:11.556Z,4.15
2023-01-04T05:40:38.012Z,4.09
2023-01-04T05:43:04.379Z,4.02
2023-01-04T05:45:31.079Z,4.00
2023-01-04T05:47:57.441Z,3.91
2023-01-04T05:50:24.365Z,3.75
2023-01-04T05:52:51.391Z,3.68
2023-01-04T05:55:17.798Z,3.63
2023-01-04T05:57:44.168Z,3.60
2023-01-04T06:00:11.381Z,3.56
2023-01-04T06:02:37.982Z,3.53
2023-01-04T06:05:05.163Z,3.45
2023-01-04T06:07:31.781Z,3.41
2023-01-04T06:09:58.327Z,3.39
2023-01-04T06:12:31.447Z,3.44
2023-01-04T06:14:57.762Z,3.47
2023-01-04T06:17:24.138Z,3.53
2023-01-04T06:19:50.641Z,3.49
2023-01-04T06:22:16.939Z,3.55
2023-01-04T06:24:43.312Z,3.59
2023-01-04T06:27:09.665Z,3.56
2023-01-04T06:29:36.081Z,3.62
2023-01-04T06:32:02.524Z,3.64
2023-01-04T06:34:31.343Z,3.70
2023-01-04T06:36:58.581Z,3.71
2023-01-04T06:39:25.009Z,3.76
2023-01-04T06:41:51.497Z,3.77
2023-01-04T06:44:17.919Z,3.83
2023-01-04T06:46:44.613Z,3.89
2023-01-04T06:49:10.942Z,3.96
2023-01-04T06:51:37.242Z,3.99
2023-01-04T06:54:03.724Z,4.04
2023-01-04T06:56:30.068Z,4.06
2023-01-04T06:58:56.379Z,4.08
2023-01-04T07:01:22.741Z,4.04
2023-01-04T07:03:49.166Z,4.09
2023-01-04T07:06:15.502Z,4.10
2023-01-04T07:08:41.817Z,4.06
2023-01-04T07:11:08.190Z,4.11
2023-01-04T07:13:34.479Z,4.17
2023-01-04T07:16:00.875Z,4.22
2023-01-04T07:18:27.300Z,4.17
2023-01-04T07:20:53.657Z,4.20
2023-01-04T07:23:20.120Z,4.25
2023-01-04T07:25:46.544Z,4.34
2023-01-04T07:28:12.946Z,4.41
2023-01-04T07:30:39.316Z,4.44
2023-01-04T07:33:05.659Z,4.47
2023-01-04T07:35:32.074Z,4.47
2023-01-04T07:37:59.344Z,4.57
2023-01-04T07:40:27.031Z,4.66
2023-01-04T07:42:54.876Z,4.72
2023-01-04T07:45:21.314Z,4.72
2023-01-04T07:47:47.605Z,4.77
2023-01-04T07:50:14.115Z,4.81
2023-01-04T07:52:40.455Z,4.87
2023-01-04T07:55:07.356Z,4.93
2023-01-04T07:57:33.651Z,4.97
2023-01-04T08:00:00.028Z,5.03
2023-01-04T08:02:26.546Z,5.07
2023-01-04T08:04:52.964Z,5.14
2023-01-04T08:07:19.321Z,5.21
2023-01-04T08:09:45.738Z,5.28
2023-01-04T08:12:12.032Z,5.31
2023-01-04T08:14:38.499Z,5.34
2023-01-04T08:17:04.905Z,5.41
2023-01-04T08:19:31.200Z,5.46
2023-01-04T08:21:57.619Z,5.47
2023-01-04T08:24:24.064Z,5.50
2023-01-04T08:26:50.357Z,5.53
2023-01-04T08:29:16.746Z,5.60
2023-01-04T08:31:43.307Z,5.64
2023-01-04T08:34:10.304Z,5.66
2023-01-04T08:36:46.401Z,5.65
2023-01-04T08:39:12.883Z,5.68
2023-01-04T08:41:57.374Z,5.68
2023-01-04T08:44:25.883Z,5.73
2023-01-04T08:46:53.578Z,5.75
2023-01-04T08:49:21.229Z,5.82
2023-01-04T08:51:48.737Z,5.85
2023-01-04T08:54:15.411Z,5.85
2023-01-04T08:56:42.679Z,5.87
2023-01-04T08:59:13.144Z,5.85
2023-01-04T09:01:40.466Z,5.89
2023-01-04T09:04:07.740Z,6.00
2023-01-04T09:06:34.841Z,6.12
2023-01-04T09:09:01.241Z,6.25
2023-01-04T09:11:27.729Z,6.36
2023-01-04T09:14:06.829Z,6.46
2023-01-04T09:16:34.658Z,6.55
2023-01-04T09:19:01.036Z,6.62
2023-01-04T09:21:27.402Z,6.66
2023-01-04T09:23:53.913Z,6.70
2023-01-04T09:26:22.803Z,6.75
2023-01-04T09:28:50.102Z,6.82
2023-01-04T09:31:18.823Z,6.87
2023-01-04T09:34:13.348Z,6.88
2023-01-04T09:36:32.280Z,6.98
2023-01-04T09:38:58.594Z,7.11
2023-01-04T09:41:35.945Z,7.16
2023-01-04T09:44:14.385Z,7.17
2023-01-04T09:46:48.503Z,7.16
2023-01-04T09:49:33.389Z,7.16
2023-01-04T09:52:34.772Z,7.30
2023-01-04T09:55:37.545Z,7.47
2023-01-04T09:58:05.157Z,7.70
2023-01-04T10:00:48.531Z,7.88
2023-01-04T10:03:21.533Z,7.98
2023-01-04T10:05:48.729Z,8.10
2023-01-04T10:08:17.430Z,8.20
2023-01-04T10:10:55.879Z,8.35
2023-01-04T10:13:40.821Z,8.51
2023-01-04T10:16:30.344Z,8.65
2023-01-04T10:19:51.055Z,8.69
2023-01-04T10:22:49.466Z,8.76
2023-01-04T10:25:22.242Z,8.81
2023-01-04T10:28:14.893Z,8.71
2023-01-04T10:31:38.411Z,8.67
2023-01-04T10:34:18.958Z,8.65
2023-01-04T10:36:46.840Z,8.68
2023-01-04T10:39:14.922Z,8.68
2023-01-04T10:41:57.478Z,8.77
2023-01-04T10:44:37.937Z,8.73
2023-01-04T10:47:13.714Z,8.70
2023-01-04T10:49:47.111Z,8.68
2023-01-04T10:52:20.386Z,8.66
2023-01-04T10:54:55.192Z,8.71
2023-01-04T10:57:40.659Z,8.69
2023-01-04T11:00:22.752Z,8.68
2023-01-04T11:03:13.577Z,8.67
2023-01-04T11:06:04.948Z,8.63
2023-01-04T11:08:37.753Z,8.60
2023-01-04T11:11:09.486Z,8.63
2023-01-04T11:13:36.295Z,8.66
2023-01-04T11:16:05.303Z,8.65
2023-01-04T11:18:33.921Z,8.73
2023-01-04T11:21:03.857Z,8.81
2023-01-04T11:23:30.176Z,8.80
2023-01-04T11:26:00.519Z,8.80
2023-01-04T11:28:37.767Z,8.79
2023-01-04T11:31:18.735Z,8.83
2023-01-04T11:33:56.348Z,8.96
2023-01-04T11:36:33.790Z,8.95
2023-01-04T11:39:00.245Z,8.99
2023-01-04T11:41:27.018Z,9.02
2023-01-04T11:44:02.700Z,9.06
2023-01-04T11:46:30.409Z,9.14
2023-01-04T11:48:57.440Z,9.24
2023-01-04T11:51:23.698Z,9.37
2023-01-04T11:53:58.757Z,9.41
2023-01-04T11:56:27.253Z,9.48
2023-01-04T11:59:24.908Z,9.53
2023-01-04T12:01:53.153Z,9.56
2023-01-04T12:04:26.384Z,9.50
2023-01-04T12:07:27.396Z,9.56
2023-01-04T12:09:53.958Z,9.53
2023-01-04T12:12:21.233Z,9.60
2023-01-04T12:14:49.471Z,9.63
2023-01-04T12:17:25.455Z,9.62
2023-01-04T12:19:56.931Z,9.59
2023-01-04T12:22:36.900Z,9.63
2023-01-04T12:25:21.675Z,9.66
2023-01-04T12:27:49.581Z,9.73
2023-01-04T12:30:39.162Z,9.70
2023-01-04T12:33:34.688Z,9.71
2023-01-04T12:36:05.527Z,9.81
2023-01-04T12:39:02.096Z,9.78
2023-01-04T12:41:34.285Z,9.80
2023-01-04T12:44:02.550Z,9.89
2023-01-04T12:46:31.915Z,10.03
2023-01-04T12:48:58.230Z,10.05
2023-01-04T12:51:33.841Z,10.17
2023-01-04T12:54:05.197Z,10.12
2023-01-04T12:57:09.254Z,10.29
2023-01-04T12:59:52.280Z,10.30
2023-01-04T13:02:20.187Z,10.18
2023-01-04T13:04:46.899Z,10.21
2023-01-04T13:07:23.112Z,10.21
2023-01-04T13:09:57.507Z,10.15
2023-01-04T13:12:38.462Z,10.13
2023-01-04T13:15:19.298Z,10.08
2023-01-04T13:17:47.086Z,10.10
2023-01-04T13:20:23.661Z,10.08
2023-01-04T13:22:53.966Z,10.16
2023-01-04T13:25:21.936Z,10.17
2023-01-04T13:27:59.845Z,10.25
2023-01-04T13:30:32.351Z,10.21
2023-01-04T13:33:25.598Z,10.21
2023-01-04T13:36:09.362Z,10.36
2023-01-04T13:38:39.032Z,10.34
2023-01-04T13:41:20.608Z,10.29
2023-01-04T13:44:07.786Z,10.24
2023-01-04T13:46:34.288Z,10.18
2023-01-04T13:49:02.371Z,10.16
2023-01-04T13:51:36.665Z,10.14
2023-01-04T13:54:06.759Z,10.16
2023-01-04T13:56:35.017Z,10.13
2023-01-04T13:59:01.895Z,10.19
2023-01-04T14:01:31.403Z,10.19
2023-01-04T14:04:06.909Z,10.20
2023-01-04T14:06:40.147Z,10.16
2023-01-04T14:09:09.428Z,10.20
2023-01-04T14:11:46.363Z,10.21
2023-01-04T14:14:42.342Z,10.26
2023-01-04T14:17:32.904Z,10.23
2023-01-04T14:20:25.964Z,10.26
2023-01-04T14:22:54.427Z,10.31
2023-01-04T14:25:38.045Z,10.24
2023-01-04T14:28:23.511Z,10.17
2023-01-04T14:30:59.229Z,10.19
2023-01-04T14:33:32.698Z,10.14
2023-01-04T14:36:20.609Z,10.14
2023-01-04T14:39:05.131Z,10.13
2023-01-04T14:41:34.103Z,10.08
2023-01-04T14:44:00.347Z,10.15
2023-01-04T14:46:31.624Z,10.07
2023-01-04T14:48:58.726Z,10.08
2023-01-04T14:51:37.081Z,10.07
2023-01-04T14:54:05.015Z,10.07
2023-01-04T14:56:31.375Z,10.09
2023-01-04T14:58:57.739Z,10.06
2023-01-04T15:01:24.245Z,9.96
2023-01-04T15:03:50.769Z,9.98
2023-01-04T15:06:17.346Z,9.97
2023-01-04T15:08:43.738Z,9.98
2023-01-04T15:11:12.760Z,10.00
2023-01-04T15:13:40.022Z,9.99
2023-01-04T15:16:10.377Z,9.99
2023-01-04T15:18:36.673Z,9.97
2023-01-04T15:21:04.088Z,9.90
2023-01-04T15:23:30.373Z,9.87
2023-01-04T15:25:56.686Z,9.88
2023-01-04T15:28:23.088Z,9.94
2023-01-04T15:30:49.620Z,9.95
2023-01-04T15:33:16.047Z,9.91
2023-01-04T15:35:42.406Z,9.91
2023-01-04T15:38:14.383Z,9.87
2023-01-04T15:40:44.084Z,9.84
2023-01-04T15:43:10.524Z,9.79
2023-01-04T15:45:38.313Z,9.81
2023-01-04T15:48:06.587Z,9.78
2023-01-04T15:50:39.030Z,9.75
2023-01-04T15:53:08.760Z,9.72
2023-01-04T15:55:37.091Z,9.72
2023-01-04T15:58:06.992Z,9.67
2023-01-04T16:00:33.356Z,9.52
2023-01-04T16:02:59.914Z,9.46
2023-01-04T16:05:26.305Z,9.42
2023-01-04T16:07:52.585Z,9.38
2023-01-04T16:10:19.154Z,9.41
2023-01-04T16:12:49.840Z,9.40
2023-01-04T16:15:20.382Z,9.37
2023-01-04T16:17:47.208Z,9.32
2023-01-04T16:20:16.983Z,9.25
2023-01-04T16:22:43.301Z,9.26
2023-01-04T16:25:11.973Z,9.23
2023-01-04T16:27:38.800Z,9.21
2023-01-04T16:30:08.172Z,9.24
2023-01-04T16:32:36.131Z,9.21
2023-01-04T16:35:02.525Z,9.18
2023-01-04T16:37:29.375Z,9.19
2023-01-04T16:40:11.082Z,9.22
2023-01-04T16:42:38.605Z,9.26
2023-01-04T16:45:05.645Z,9.23
2023-01-04T16:47:40.545Z,9.22
2023-01-04T16:50:07.203Z,9.18
2023-01-04T16:52:33.636Z,9.12
2023-01-04T16:54:59.948Z,9.16
2023-01-04T16:57:26.611Z,9.14
2023-01-04T16:59:52.960Z,9.17
2023-01-04T17:02:19.319Z,9.15
2023-01-04T17:04:45.776Z,9.15
2023-01-04T17:07:12.067Z,9.11
2023-01-04T17:09:38.421Z,9.14
2023-01-04T17:12:45.564Z,9.14
2023-01-04T17:15:15.023Z,9.15
2023-01-04T17:17:37.497Z,9.15
2023-01-04T17:20:04.251Z,9.11
2023-01-04T17:22:34.238Z,9.10
2023-01-04T17:25:01.000Z,9.10
2023-01-04T17:27:27.307Z,9.12
2023-01-04T17:29:53.757Z,9.10
2023-01-04T17:32:20.093Z,9.13
2023-01-04T17:34:49.170Z,9.11
2023-01-04T17:37:15.496Z,9.14
2023-01-04T17:39:41.823Z,9.11
2023-01-04T17:42:08.141Z,9.07
2023-01-04T17:44:34.435Z,9.08
2023-01-04T17:47:00.874Z,9.09
2023-01-04T17:49:31.254Z,9.07
2023-01-04T17:51:58.296Z,9.09
2023-01-04T17:54:24.654Z,9.12
2023-01-04T17:56:51.425Z,9.14
2023-01-04T17:59:17.736Z,9.17
2023-01-04T18:01:44.256Z,9.20
2023-01-04T18:04:10.632Z,9.18
2023-01-04T18:06:37.183Z,9.18
2023-01-04T18:09:05.614Z,9.18
2023-01-04T18:11:32.036Z,9.17
2023-01-04T18:13:58.674Z,9.22
2023-01-04T18:16:27.530Z,9.25
2023-01-04T18:18:59.517Z,9.33
2023-01-04T18:21:29.477Z,9.32
2023-01-04T18:27:19.740Z,9.31
2023-01-04T18:29:33.460Z,9.28
2023-01-04T18:31:59.908Z,9.26
2023-01-04T18:34:26.675Z,9.31
2023-01-04T18:36:53.913Z,9.29
2023-01-04T18:39:20.607Z,9.30
2023-01-04T18:41:47.134Z,9.31
2023-01-04T18:44:32.254Z,9.33
2023-01-04T18:46:59.470Z,9.30
2023-01-04T18:49:25.896Z,9.27
2023-01-04T18:51:52.236Z,9.30
2023-01-04T18:54:18.543Z,9.30
2023-01-04T18:56:44.960Z,9.34
2023-01-04T18:59:11.353Z,9.34
2023-01-04T19:01:37.819Z,9.37
2023-01-04T19:04:04.459Z,9.35
2023-01-04T19:06:30.776Z,9.36
2023-01-04T19:09:01.495Z,9.40
2023-01-04T19:11:30.928Z,9.45
2023-01-04T19:13:57.221Z,9.49
2023-01-04T19:16:23.637Z,9.52
2023-01-04T19:18:50.017Z,9.53
2023-01-04T19:21:16.318Z,9.59
2023-01-04T19:23:42.829Z,9.59
2023-01-04T19:26:09.571Z,9.65
2023-01-04T19:28:35.948Z,9.68
2023-01-04T19:31:09.675Z,9.68
2023-01-04T19:33:37.179Z,9.66
2023-01-04T19:36:07.268Z,9.66
2023-01-04T19:38:33.691Z,9.68
2023-01-04T19:41:00.851Z,9.69
2023-01-04T19:43:27.254Z,9.71
2023-01-04T19:45:53.672Z,9.71
2023-01-04T19:48:20.158Z,9.78
2023-01-04T19:50:46.614Z,9.77
2023-01-04T19:53:13.031Z,9.81
2023-01-04T19:55:40.292Z,9.83
2023-01-04T19:58:07.181Z,9.86
2023-01-04T20:00:33.725Z,9.91
2023-01-04T20:03:00.328Z,9.94
2023-01-04T20:05:26.930Z,9.91
2023-01-04T20:07:53.312Z,9.92
2023-01-04T20:10:19.611Z,9.94
2023-01-04T20:12:45.954Z,9.95
2023-01-04T20:15:12.276Z,9.93
2023-01-04T20:17:38.648Z,9.94
2023-01-04T20:20:05.389Z,9.98
2023-01-04T20:22:32.303Z,9.99
2023-01-04T20:24:58.635Z,10.03
2023-01-04T20:27:25.011Z,10.05
2023-01-04T20:29:51.336Z,10.10
2023-01-04T20:32:17.642Z,10.06
2023-01-04T20:34:44.091Z,10.02
2023-01-04T20:37:10.445Z,10.01
2023-01-04T20:39:36.837Z,10.05
2023-01-04T20:42:03.270Z,10.02
2023-01-04T20:44:30.070Z,9.98
2023-01-04T20:46:56.398Z,9.97
2023-01-04T20:49:22.735Z,9.94
2023-01-04T20:51:49.434Z,9.95
2023-01-04T20:54:15.855Z,9.99
2023-01-04T20:56:42.163Z,9.94
2023-01-04T20:59:08.589Z,9.96
2023-01-04T21:01:35.120Z,9.99
2023-01-04T21:04:01.575Z,9.96
2023-01-04T21:06:27.942Z,10.01
2023-01-04T21:08:54.612Z,10.03
2023-01-04T21:11:21.046Z,10.00
2023-01-04T21:13:51.393Z,9.98
2023-01-04T21:16:18.011Z,9.99
2023-01-04T21:18:44.405Z,10.02
2023-01-04T21:21:16.408Z,10.03
2023-01-04T21:23:43.895Z,10.01
2023-01-04T21:26:14.576Z,10.02
2023-01-04T21:28:40.939Z,10.00
2023-01-04T21:31:12.081Z,10.04
2023-01-04T21:33:38.754Z,10.06
2023-01-04T21:36:16.221Z,10.07
2023-01-04T21:38:42.762Z,10.08
2023-01-04T21:41:12.157Z,10.10
2023-01-04T21:43:39.329Z,10.10
2023-01-04T21:46:07.717Z,10.03
2023-01-04T21:48:34.560Z,9.99
2023-01-04T21:51:02.601Z,9.95
2023-01-04T21:53:30.404Z,9.98
2023-01-04T21:55:58.920Z,9.94
2023-01-04T21:58:25.280Z,9.95
2023-01-04T22:00:51.607Z,10.05
2023-01-04T22:03:17.899Z,10.05
2023-01-04T22:05:44.331Z,10.11
2023-01-04T22:08:10.637Z,10.11
2023-01-04T22:10:36.946Z,10.11
2023-01-04T22:13:03.502Z,10.12
2023-01-04T22:15:29.845Z,10.20
2023-01-04T22:17:56.147Z,10.27
2023-01-04T22:20:22.617Z,10.33
2023-01-04T22:22:49.020Z,10.33
2023-01-04T22:25:15.397Z,10.33
2023-01-04T22:27:42.040Z,10.35
2023-01-04T22:30:08.747Z,10.44
2023-01-04T22:32:35.276Z,10.41
2023-01-04T22:35:01.634Z,10.44
2023-01-04T22:37:27.945Z,10.43
2023-01-04T22:39:54.299Z,10.48
2023-01-04T22:42:20.587Z,10.52
2023-01-04T22:44:46.961Z,10.50
2023-01-04T22:47:13.284Z,10.51
2023-01-04T22:49:39.657Z,10.53
2023-01-04T22:52:06.123Z,10.50
2023-01-04T22:54:32.531Z,10.53
2023-01-04T22:56:59.585Z,10.47
2023-01-04T22:59:25.931Z,10.45
2023-01-04T23:01:53.211Z,10.45
2023-01-04T23:04:19.989Z,10.39
2023-01-04T23:06:46.292Z,10.40
2023-01-04T23:09:15.434Z,10.40
2023-01-04T23:11:42.590Z,10.43
2023-01-04T23:14:13.955Z,10.44
2023-01-04T23:16:40.571Z,10.46
2023-01-04T23:19:07.302Z,10.48
2023-01-04T23:21:35.239Z,10.47
2023-01-04T23:24:02.121Z,10.47
2023-01-04T23:26:30.066Z,10.49
2023-01-04T23:28:56.501Z,10.47
2023-01-04T23:31:25.026Z,10.51
2023-01-04T23:33:54.258Z,10.52
2023-01-04T23:36:24.812Z,10.53
2023-01-04T23:38:56.958Z,10.58
2023-01-04T23:41:23.605Z,10.60
2023-01-04T23:43:49.915Z,10.60
2023-01-04T23:46:17.927Z,10.59
2023-01-04T23:48:45.054Z,10.58
2023-01-04T23:51:14.777Z,10.57
2023-01-04T23:53:41.131Z,10.59
2023-01-04T23:56:14.071Z,10.56
2023-01-04T23:58:40.486Z,10.60
